AGROMETEOROLOŠKI PORTAL
Vinorodna pokrajina

Temelj dobrega kmetovanja.

Pregled podatkov za lokacijo Šentrupert DRSI, meteorološka postaja 51

Pregled senzorjev na lokaciji

ID Ime Zadnja
vrednost
Datum in čas
meritve
(lokalni čas)
Tip
senzorja
6268 Zračni tlak (hPa) 980 hPa 18.4.2024 18:00 DRSI
6265 Relativna zračna vlaga (2 m) (% RH) 83 % RH 18.4.2024 18:00 DRSI
6264 Temperatura (2 m) (°C) 10 °C 18.4.2024 18:00 DRSI
6267 Smer vetra (2 m) (°) 180 ° 18.4.2024 18:00 DRSI
6266 Hitrost vetra (2 m) (km/h) 1 km/h 18.4.2024 18:00 DRSI

Pregled podatkov zadnjih 24 ur

Zap.
št.
Datum in čas
(lokalni čas)
Šentrupert DRSI
Zračni
tlak
Relativna
zračna
vlaga
(2
m)
Temperatura
(2
m)
Smer
vetra
(2
m)
Hitrost
vetra
(2
m)
1 18.4.2024 18:00 979,8 83 10 180 1,3
2 18.4.2024 17:30 979,8 83,3 10 180 0,4
3 18.4.2024 17:00 979,8 86 9,7 0
4 18.4.2024 16:30 979,8 87,3 9 194,6 4,7
5 18.4.2024 16:00 979,8 88 8,7 225 11,9
6 18.4.2024 15:30 979,8 88 8,3 225 14,3
7 18.4.2024 15:00 979,8 86 7,7 225 11,6
8 18.4.2024 14:30 979,8 83,7 7 225 11,6
9 18.4.2024 14:00 979,8 86,3 7,3 194,6 13,7
10 18.4.2024 13:30 979,2 83,7 7 225 5,9
11 18.4.2024 13:00 978,9 91,3 7,7 112 7,7
12 18.4.2024 12:30 977,9 87,3 9,7 22 10,3
13 18.4.2024 12:00 977,6 86,3 10 315 3,6
14 18.4.2024 11:30 977,2 89 9,7 246,1 7,9
15 18.4.2024 11:00 977,2 87,3 9,3 112,5 2,6
16 18.4.2024 10:30 977,2 86,7 9,3 341,6 3,4
17 18.4.2024 10:00 976,9 85 9 355,4 2,6
18 18.4.2024 09:30 977,2 76,7 8,7 0 4,9
19 18.4.2024 09:00 977,9 49,3 7 22,3 5,6
20 18.4.2024 08:30 977,9 28 6 7,3 5,3
21 18.4.2024 08:00 977,6 27,7 5 22,3 5,3
22 18.4.2024 07:30 976,9 31,3 4,3 11 4
23 18.4.2024 07:00 976,9 37 4 45 2
24 18.4.2024 06:30 976,9 41,3 4 22 4,6
25 18.4.2024 06:00 976,6 37,3 5 11 2,6
26 18.4.2024 05:30 976 39 5 14,7 2,6
27 18.4.2024 05:00 976 33 5 35,8 4,3
28 18.4.2024 04:30 976 31,3 5 337,5 2,6
29 18.4.2024 04:00 976 29 5 37,4 3,6
30 18.4.2024 03:30 976 30 5 22 5,3
31 18.4.2024 03:00 976 32,7 5 22,5 6,2
32 18.4.2024 02:30 976 37 5 29,6 3,6
33 18.4.2024 02:00 976,3 38,7 5 22 4,3
34 18.4.2024 01:30 976,6 44,7 5 29,6 5,3
35 18.4.2024 01:00 976 48,3 5 0 3,6
36 18.4.2024 00:30 976 59,7 5 14,7 2,6
37 18.4.2024 00:00 976 66,3 5,7 14,7 3,6
38 17.4.2024 23:30 975,3 73 6 22 2,6
39 17.4.2024 23:00 975 80,7 7 45 3,2
40 17.4.2024 22:30 975 86,3 7,7 22 2,6
41 17.4.2024 22:00 975 88,7 8 194,6 3,6
42 17.4.2024 21:30 974,7 92 8,3 180 6,2
43 17.4.2024 21:00 974 91,3 9 180 6,2
44 17.4.2024 20:30 973,7 86,7 9,7 194,6 9,4
45 17.4.2024 20:00 973,1 76,7 10,3 135 4
46 17.4.2024 19:30 972,1 72 11 104,7 4,9